createdAt,value
2022-10-21T00:00:34.909Z,38.20
2022-10-21T00:03:02.053Z,41.60
2022-10-21T00:05:29.031Z,37.57
2022-10-21T00:07:56.255Z,37.00
2022-10-21T00:10:23.239Z,36.63
2022-10-21T00:12:50.216Z,40.67
2022-10-21T00:15:17.233Z,39.20
2022-10-21T00:17:44.302Z,40.50
2022-10-21T00:20:12.666Z,44.13
2022-10-21T00:22:40.078Z,38.87
2022-10-21T00:25:07.489Z,38.07
2022-10-21T00:27:34.849Z,36.50
2022-10-21T00:30:01.947Z,37.60
2022-10-21T00:32:28.930Z,36.30
2022-10-21T00:34:55.905Z,36.07
2022-10-21T00:37:22.875Z,37.83
2022-10-21T00:39:49.888Z,35.53
2022-10-21T00:42:18.583Z,34.97
2022-10-21T00:45:01.926Z,34.00
2022-10-21T00:47:28.975Z,36.60
2022-10-21T00:49:59.140Z,36.23
2022-10-21T00:52:26.619Z,37.30
2022-10-21T00:54:55.917Z,39.17
2022-10-21T00:57:23.591Z,40.73
2022-10-21T00:59:55.477Z,37.97
2022-10-21T01:02:22.759Z,35.00
2022-10-21T01:04:53.339Z,35.70
2022-10-21T01:07:20.579Z,35.90
2022-10-21T01:09:47.540Z,36.43
2022-10-21T01:12:20.128Z,35.63
2022-10-21T01:14:53.272Z,37.93
2022-10-21T01:17:44.834Z,37.37
2022-10-21T01:20:30.795Z,39.50
2022-10-21T01:23:20.978Z,39.83
2022-10-21T01:26:00.145Z,39.77
2022-10-21T01:28:27.088Z,41.90
2022-10-21T01:30:54.054Z,34.93
2022-10-21T01:33:36.448Z,35.40
2022-10-21T01:36:07.679Z,32.07
2022-10-21T01:38:37.470Z,34.50
2022-10-21T01:41:07.515Z,44.45
2022-10-21T01:43:38.334Z,37.63
2022-10-21T01:46:07.897Z,39.13
2022-10-21T01:48:38.216Z,37.30
2022-10-21T01:51:08.445Z,40.37
2022-10-21T01:53:39.218Z,39.63
2022-10-21T01:56:06.911Z,40.50
2022-10-21T01:58:35.604Z,39.93
2022-10-21T02:01:03.923Z,38.90
2022-10-21T02:03:33.631Z,40.00
2022-10-21T02:06:00.610Z,39.97
2022-10-21T02:08:27.891Z,36.97
2022-10-21T02:10:58.009Z,34.77
2022-10-21T02:13:31.595Z,38.80
2022-10-21T02:16:00.504Z,37.63
2022-10-21T02:18:27.574Z,40.77
2022-10-21T02:20:57.369Z,45.10
2022-10-21T02:23:30.659Z,35.37
2022-10-21T02:25:57.675Z,34.87
2022-10-21T02:28:24.722Z,32.70
2022-10-21T02:31:07.000Z,31.93
2022-10-21T02:33:47.864Z,31.20
2022-10-21T02:36:16.817Z,30.33
2022-10-21T02:38:57.181Z,30.63
2022-10-21T02:41:26.519Z,31.30
2022-10-21T02:43:55.925Z,29.73
2022-10-21T02:46:22.960Z,30.90
2022-10-21T02:48:50.075Z,29.80
2022-10-21T02:51:17.335Z,31.73
2022-10-21T02:53:44.595Z,31.07
2022-10-21T02:56:11.597Z,37.63
2022-10-21T02:58:38.610Z,31.03
2022-10-21T03:01:05.779Z,29.67
2022-10-21T03:03:32.816Z,27.20
2022-10-21T03:05:59.794Z,31.03
2022-10-21T03:08:26.756Z,31.10
2022-10-21T03:10:53.949Z,29.27
2022-10-21T03:13:21.648Z,31.07
2022-10-21T03:15:49.506Z,30.73
2022-10-21T03:18:16.831Z,29.10
2022-10-21T03:20:44.093Z,28.77
2022-10-21T03:23:11.082Z,28.97
2022-10-21T03:25:38.058Z,31.50
2022-10-21T03:28:05.099Z,32.00
2022-10-21T03:30:32.070Z,30.23
2022-10-21T03:32:59.034Z,29.53
2022-10-21T03:35:26.026Z,35.28
2022-10-21T03:37:53.031Z,32.00
2022-10-21T03:40:20.379Z,30.10
2022-10-21T03:42:47.366Z,28.63
2022-10-21T03:45:14.327Z,28.63
2022-10-21T03:47:41.323Z,22.17
2022-10-21T03:50:12.128Z,23.67
2022-10-21T03:52:42.228Z,24.67
2022-10-21T03:55:09.292Z,24.40
2022-10-21T03:57:36.342Z,21.33
2022-10-21T04:00:03.500Z,23.63
2022-10-21T04:02:30.548Z,22.77
2022-10-21T04:04:57.520Z,22.67
2022-10-21T04:07:24.504Z,20.67
2022-10-21T04:09:51.490Z,25.85
2022-10-21T04:12:18.479Z,21.23
2022-10-21T04:14:45.441Z,19.10
2022-10-21T04:17:12.415Z,19.07
2022-10-21T04:19:39.370Z,19.17
2022-10-21T04:22:07.223Z,20.63
2022-10-21T04:24:34.213Z,19.23
2022-10-21T04:27:01.195Z,18.23
2022-10-21T04:29:28.213Z,17.77
2022-10-21T04:34:23.291Z,19.47
2022-10-21T04:36:51.230Z,18.90
2022-10-21T04:39:18.239Z,18.97
2022-10-21T04:41:45.691Z,19.97
2022-10-21T04:44:12.649Z,18.83
2022-10-21T04:46:39.608Z,18.50
2022-10-21T04:49:06.573Z,19.73
2022-10-21T04:51:33.584Z,18.67
2022-10-21T04:54:00.547Z,18.50
2022-10-21T04:56:27.521Z,17.70
2022-10-21T04:58:54.478Z,17.87
2022-10-21T05:01:21.520Z,15.73
2022-10-21T05:03:48.499Z,16.83
2022-10-21T05:06:15.590Z,16.23
2022-10-21T05:08:42.602Z,15.90
2022-10-21T05:11:09.675Z,17.37
2022-10-21T05:13:36.702Z,15.63
2022-10-21T05:16:04.807Z,12.83
2022-10-21T05:18:31.794Z,13.73
2022-10-21T05:20:59.292Z,10.93
2022-10-21T05:23:26.795Z,11.30
2022-10-21T05:25:54.083Z,10.52
2022-10-21T05:28:21.662Z,8.80
2022-10-21T05:30:48.739Z,7.93
2022-10-21T05:33:16.057Z,8.53
2022-10-21T05:35:43.121Z,10.03
2022-10-21T05:38:10.275Z,7.50
2022-10-21T05:40:37.268Z,7.80
2022-10-21T05:43:04.251Z,7.67
2022-10-21T05:45:31.259Z,7.30
2022-10-21T05:47:58.295Z,6.60
2022-10-21T05:50:25.322Z,6.10
2022-10-21T05:52:53.880Z,7.23
2022-10-21T05:55:21.771Z,6.40
2022-10-21T05:57:48.777Z,6.40
2022-10-21T06:00:15.927Z,5.83
2022-10-21T06:02:42.923Z,6.13
2022-10-21T06:05:09.935Z,6.27
2022-10-21T06:07:37.483Z,5.60
2022-10-21T06:10:05.033Z,6.23
2022-10-21T06:12:32.038Z,5.37
2022-10-21T06:17:44.951Z,6.60
2022-10-21T06:20:12.093Z,4.90
2022-10-21T06:22:39.154Z,6.33
2022-10-21T06:25:06.369Z,6.27
2022-10-21T06:27:33.436Z,6.53
2022-10-21T06:30:00.408Z,7.83
2022-10-21T06:32:27.625Z,7.40
2022-10-21T06:34:54.603Z,7.83
2022-10-21T06:37:21.625Z,7.27
2022-10-21T06:39:48.797Z,7.63
2022-10-21T06:42:16.085Z,7.20
2022-10-21T06:44:43.085Z,7.23
2022-10-21T06:47:10.187Z,7.73
2022-10-21T06:49:37.199Z,7.87
2022-10-21T06:52:04.279Z,7.57
2022-10-21T06:56:58.519Z,9.52
2022-10-21T06:59:25.507Z,8.30
2022-10-21T07:02:00.103Z,8.40
2022-10-21T07:04:28.215Z,9.93
2022-10-21T07:06:55.346Z,8.27
2022-10-21T07:09:22.409Z,7.43
2022-10-21T07:11:49.419Z,7.23
2022-10-21T07:14:16.415Z,6.60
2022-10-21T07:16:43.538Z,5.73
2022-10-21T07:19:10.838Z,5.90
2022-10-21T07:21:37.818Z,6.30
2022-10-21T07:24:04.866Z,6.40
2022-10-21T07:26:33.743Z,6.30
2022-10-21T07:29:01.022Z,6.77
2022-10-21T07:31:29.360Z,7.50
2022-10-21T07:33:56.405Z,7.30
2022-10-21T07:36:25.525Z,7.00
2022-10-21T07:38:52.811Z,7.37
2022-10-21T07:41:24.051Z,8.50
2022-10-21T07:43:51.431Z,7.47
2022-10-21T07:46:19.027Z,8.47
2022-10-21T07:48:45.981Z,7.93
2022-10-21T07:51:14.365Z,9.20
2022-10-21T07:53:41.771Z,9.43
2022-10-21T07:56:10.198Z,9.57
2022-10-21T07:58:37.216Z,9.10
2022-10-21T08:01:05.420Z,9.30
2022-10-21T08:03:32.644Z,10.10
2022-10-21T08:05:59.861Z,9.67
2022-10-21T08:08:27.150Z,9.07
2022-10-21T08:10:55.023Z,9.90
2022-10-21T08:13:22.321Z,8.60
2022-10-21T08:15:50.728Z,9.17
2022-10-21T08:18:18.318Z,9.23
2022-10-21T08:20:46.003Z,9.53
2022-10-21T08:23:14.096Z,9.17
2022-10-21T08:25:47.013Z,9.07
2022-10-21T08:28:14.040Z,8.97
2022-10-21T08:30:41.007Z,9.13
2022-10-21T08:33:07.976Z,8.57
2022-10-21T08:35:34.995Z,10.23
2022-10-21T08:38:02.055Z,9.97
2022-10-21T08:40:30.078Z,8.87
2022-10-21T08:42:57.155Z,9.90
2022-10-21T08:45:29.676Z,9.37
2022-10-21T08:48:00.429Z,9.23
2022-10-21T08:50:29.740Z,8.97
2022-10-21T08:53:02.372Z,9.43
2022-10-21T08:55:33.680Z,9.57
2022-10-21T08:58:00.662Z,8.07
2022-10-21T09:00:31.782Z,8.57
2022-10-21T09:03:05.944Z,8.83
2022-10-21T09:05:36.796Z,8.37
2022-10-21T09:08:13.816Z,8.65
2022-10-21T09:10:50.112Z,8.97
2022-10-21T09:13:34.718Z,7.80
2022-10-21T09:16:24.682Z,8.07
2022-10-21T09:18:59.301Z,9.33
2022-10-21T09:21:38.414Z,7.67
2022-10-21T09:24:11.818Z,6.80
2022-10-21T09:26:43.382Z,6.73
2022-10-21T09:29:31.741Z,5.90
2022-10-21T09:32:26.743Z,6.13
2022-10-21T09:34:56.983Z,6.87
2022-10-21T09:37:30.439Z,7.37
2022-10-21T09:40:14.039Z,6.30
2022-10-21T09:42:48.597Z,7.23
2022-10-21T09:45:21.894Z,7.50
2022-10-21T09:47:52.419Z,6.50
2022-10-21T09:50:20.218Z,6.67
2022-10-21T09:52:53.521Z,6.60
2022-10-21T09:55:20.607Z,5.97
2022-10-21T09:58:01.170Z,6.57
2022-10-21T10:00:48.513Z,5.97
2022-10-21T10:03:36.603Z,6.43
2022-10-21T10:06:05.692Z,6.17
2022-10-21T10:08:40.828Z,5.93
2022-10-21T10:11:10.545Z,6.20
2022-10-21T10:13:39.554Z,6.73
2022-10-21T10:16:22.186Z,5.50
2022-10-21T10:18:59.766Z,5.40
2022-10-21T10:21:26.299Z,5.30
2022-10-21T10:23:55.070Z,5.40
2022-10-21T10:26:27.860Z,4.73
2022-10-21T10:28:58.544Z,4.20
2022-10-21T10:31:28.888Z,3.90
2022-10-21T10:33:59.499Z,4.50
2022-10-21T10:36:33.428Z,4.10
2022-10-21T10:39:02.066Z,4.77
2022-10-21T10:41:38.782Z,3.70
2022-10-21T10:44:12.092Z,3.70
2022-10-21T10:46:39.590Z,4.17
2022-10-21T10:49:15.618Z,3.70
2022-10-21T10:51:46.703Z,3.83
2022-10-21T10:54:24.698Z,3.20
2022-10-21T10:57:17.091Z,3.97
2022-10-21T10:59:51.386Z,3.50
2022-10-21T11:02:25.714Z,3.37
2022-10-21T11:05:12.953Z,3.17
2022-10-21T11:07:43.303Z,2.80
2022-10-21T11:10:41.835Z,3.07
2022-10-21T11:13:16.432Z,2.93
2022-10-21T11:16:11.363Z,3.10
2022-10-21T11:18:49.797Z,3.10
2022-10-21T11:21:34.144Z,2.70
2022-10-21T11:24:06.891Z,2.80
2022-10-21T11:26:42.469Z,2.80
2022-10-21T11:29:24.184Z,2.27
2022-10-21T11:32:29.091Z,2.20
2022-10-21T11:35:27.579Z,2.23
2022-10-21T11:38:09.351Z,2.13
2022-10-21T11:40:39.335Z,1.90
2022-10-21T11:43:24.940Z,1.80
2022-10-21T11:45:51.888Z,2.20
2022-10-21T11:48:30.573Z,2.13
2022-10-21T11:51:16.799Z,3.40
2022-10-21T11:54:02.882Z,1.80
2022-10-21T11:56:50.132Z,2.00
2022-10-21T11:59:17.108Z,1.80
2022-10-21T12:01:47.022Z,1.77
2022-10-21T12:04:26.021Z,1.80
2022-10-21T12:07:07.745Z,1.80
2022-10-21T12:09:49.057Z,1.70
2022-10-21T12:12:21.232Z,1.80
2022-10-21T12:14:57.758Z,1.80
2022-10-21T12:17:25.803Z,1.90
2022-10-21T12:19:57.760Z,1.67
2022-10-21T12:22:26.789Z,1.50
2022-10-21T12:25:01.884Z,1.93
2022-10-21T12:27:47.394Z,1.53
2022-10-21T12:30:24.880Z,1.80
2022-10-21T12:33:12.393Z,1.70
2022-10-21T12:35:45.633Z,1.60
2022-10-21T12:38:22.965Z,1.40
2022-10-21T12:40:50.910Z,1.60
2022-10-21T12:43:20.541Z,1.50
2022-10-21T12:45:48.414Z,1.27
2022-10-21T12:48:28.670Z,1.40
2022-10-21T12:50:56.987Z,1.57
2022-10-21T12:53:40.425Z,1.65
2022-10-21T12:56:09.067Z,1.83
2022-10-21T12:58:44.443Z,1.80
2022-10-21T13:01:30.375Z,1.60
2022-10-21T13:03:57.441Z,1.50
2022-10-21T13:06:43.070Z,1.73
2022-10-21T13:09:39.649Z,1.50
2022-10-21T13:12:09.699Z,1.87
2022-10-21T13:14:43.988Z,1.70
2022-10-21T13:17:23.220Z,1.80
2022-10-21T13:19:57.503Z,1.60
2022-10-21T13:22:36.174Z,1.70
2022-10-21T13:25:29.762Z,1.73
2022-10-21T13:28:14.940Z,2.27
2022-10-21T13:30:50.970Z,2.00
2022-10-21T13:33:41.212Z,2.00
2022-10-21T13:36:14.979Z,2.07
2022-10-21T13:38:49.549Z,1.97
2022-10-21T13:41:23.509Z,1.67
2022-10-21T13:44:01.222Z,1.77
2022-10-21T13:46:31.110Z,2.03
2022-10-21T13:49:01.675Z,1.80
2022-10-21T13:51:30.717Z,2.07
2022-10-21T13:54:00.451Z,2.10
2022-10-21T13:56:30.738Z,1.80
2022-10-21T13:58:57.794Z,1.60
2022-10-21T14:01:25.983Z,1.40
2022-10-21T14:03:54.010Z,1.60
2022-10-21T14:06:26.173Z,1.87
2022-10-21T14:08:55.006Z,1.87
2022-10-21T14:11:27.349Z,1.60
2022-10-21T14:13:55.286Z,1.90
2022-10-21T14:16:33.911Z,1.70
2022-10-21T14:19:07.162Z,2.17
2022-10-21T14:21:37.374Z,1.47
2022-10-21T14:24:04.722Z,2.03
2022-10-21T14:26:34.886Z,1.63
2022-10-21T14:29:04.009Z,1.50
2022-10-21T14:31:31.163Z,2.00
2022-10-21T14:33:58.281Z,1.57
2022-10-21T14:36:27.711Z,1.87
2022-10-21T14:38:58.642Z,1.57
2022-10-21T14:41:27.186Z,1.60
2022-10-21T14:43:55.111Z,1.80
2022-10-21T14:46:22.295Z,1.60
2022-10-21T14:48:59.497Z,1.80
2022-10-21T14:51:27.159Z,1.57
2022-10-21T14:53:59.258Z,1.77
2022-10-21T14:56:31.157Z,1.50
2022-10-21T14:58:59.684Z,1.57
2022-10-21T15:01:26.770Z,1.63
2022-10-21T15:03:55.287Z,1.53
2022-10-21T15:06:23.750Z,1.70
2022-10-21T15:08:56.724Z,1.50
2022-10-21T15:11:32.220Z,1.50
2022-10-21T15:14:00.790Z,1.60
2022-10-21T15:16:30.263Z,1.60
2022-10-21T15:18:57.835Z,1.57
2022-10-21T15:21:40.495Z,1.63
2022-10-21T15:24:08.003Z,1.50
2022-10-21T15:26:41.472Z,1.50
2022-10-21T15:29:17.263Z,1.50
2022-10-21T15:31:44.349Z,1.50
2022-10-21T15:34:14.207Z,1.50
2022-10-21T15:36:41.618Z,1.60
2022-10-21T15:39:09.427Z,1.50
2022-10-21T15:41:36.944Z,1.50
2022-10-21T15:44:16.771Z,1.47
2022-10-21T15:46:47.091Z,1.70
2022-10-21T15:49:21.906Z,1.40
2022-10-21T15:51:49.542Z,1.90
2022-10-21T15:54:17.138Z,1.50
2022-10-21T15:56:44.751Z,1.77
2022-10-21T15:59:20.837Z,2.00
2022-10-21T16:01:48.392Z,3.90
2022-10-21T16:04:15.756Z,4.70
2022-10-21T16:06:47.760Z,2.83
2022-10-21T16:09:28.679Z,2.10
2022-10-21T16:12:00.679Z,1.90
2022-10-21T16:14:30.052Z,1.57
2022-10-21T16:16:58.224Z,1.90
2022-10-21T16:19:25.220Z,1.83
2022-10-21T16:21:52.227Z,1.80
2022-10-21T16:24:19.335Z,1.60
2022-10-21T16:26:47.927Z,1.63
2022-10-21T16:29:22.312Z,1.73
2022-10-21T16:31:49.403Z,1.80
2022-10-21T16:34:16.756Z,1.80
2022-10-21T16:36:43.757Z,1.85
2022-10-21T16:39:13.926Z,1.73
2022-10-21T16:41:41.006Z,1.70
2022-10-21T16:44:07.964Z,1.57
2022-10-21T16:46:42.395Z,1.70
2022-10-21T16:49:14.182Z,1.97
2022-10-21T16:51:42.778Z,1.93
2022-10-21T16:54:10.662Z,1.70
2022-10-21T16:56:37.729Z,1.73
2022-10-21T16:59:04.739Z,1.80
2022-10-21T17:01:32.026Z,1.60
2022-10-21T17:03:59.058Z,1.47
2022-10-21T17:06:26.519Z,3.23
2022-10-21T17:08:54.467Z,1.60
2022-10-21T17:11:23.276Z,1.60
2022-10-21T17:13:50.607Z,1.60
2022-10-21T17:16:18.591Z,1.90
2022-10-21T17:18:45.654Z,1.50
2022-10-21T17:21:17.340Z,1.90
2022-10-21T17:23:44.310Z,1.80
2022-10-21T17:26:11.283Z,1.50
2022-10-21T17:28:38.261Z,1.70
2022-10-21T17:31:05.326Z,1.60
2022-10-21T17:33:32.344Z,1.90
2022-10-21T17:35:59.314Z,1.60
2022-10-21T17:38:26.284Z,3.33
2022-10-21T17:40:53.301Z,1.70
2022-10-21T17:43:20.383Z,1.60
2022-10-21T17:45:47.357Z,2.00
2022-10-21T17:48:14.350Z,1.83
2022-10-21T17:50:41.408Z,1.80
2022-10-21T17:53:08.400Z,1.90
2022-10-21T17:55:35.388Z,2.13
2022-10-21T17:58:02.436Z,1.83
2022-10-21T18:00:29.541Z,2.17
2022-10-21T18:02:56.512Z,2.23
2022-10-21T18:05:23.563Z,2.00
2022-10-21T18:07:50.604Z,2.37
2022-10-21T18:10:17.688Z,4.30
2022-10-21T18:12:44.726Z,2.10
2022-10-21T18:15:11.922Z,2.00
2022-10-21T18:17:40.021Z,1.67
2022-10-21T18:20:07.952Z,2.07
2022-10-21T18:22:35.023Z,2.33
2022-10-21T18:25:02.014Z,1.73
2022-10-21T18:27:28.992Z,3.40
2022-10-21T18:29:56.047Z,2.70
2022-10-21T18:32:23.111Z,3.23
2022-10-21T18:34:50.889Z,3.87
2022-10-21T18:37:17.886Z,15.00
2022-10-21T18:39:44.876Z,10.53
2022-10-21T18:42:12.035Z,4.10
2022-10-21T18:44:39.028Z,3.17
2022-10-21T18:47:06.026Z,4.30
2022-10-21T18:49:33.179Z,3.53
2022-10-21T18:52:00.137Z,5.40
2022-10-21T18:54:27.135Z,4.20
2022-10-21T18:56:54.124Z,2.80
2022-10-21T18:59:21.708Z,2.30
2022-10-21T19:01:48.889Z,6.50
2022-10-21T19:04:15.859Z,5.33
2022-10-21T19:06:45.182Z,3.08
2022-10-21T19:09:13.484Z,2.20
2022-10-21T19:11:41.279Z,3.13
2022-10-21T19:14:11.364Z,2.90
2022-10-21T19:16:41.131Z,3.27
2022-10-21T19:19:08.854Z,3.93
2022-10-21T19:21:36.034Z,3.57
2022-10-21T19:24:03.916Z,4.37
2022-10-21T19:26:31.835Z,3.03
2022-10-21T19:29:02.918Z,2.40
2022-10-21T19:31:32.375Z,2.77
2022-10-21T19:34:02.910Z,2.40
2022-10-21T19:36:29.886Z,2.10
2022-10-21T19:38:56.842Z,2.20
2022-10-21T19:41:23.975Z,2.57
2022-10-21T19:43:51.757Z,3.10
2022-10-21T19:46:23.552Z,4.28
2022-10-21T19:48:53.054Z,2.50
2022-10-21T19:51:21.018Z,2.20
2022-10-21T19:53:48.279Z,2.20
2022-10-21T19:56:15.497Z,3.07
2022-10-21T19:58:46.930Z,2.87
2022-10-21T20:01:14.940Z,2.20
2022-10-21T20:03:43.071Z,2.27
2022-10-21T20:06:11.159Z,3.70
2022-10-21T20:08:39.983Z,4.03
2022-10-21T20:11:07.911Z,3.13
2022-10-21T20:13:34.930Z,4.50
2022-10-21T20:16:02.298Z,2.40
2022-10-21T20:18:29.702Z,9.60
2022-10-21T20:20:57.137Z,3.13
2022-10-21T20:23:24.953Z,4.40
2022-10-21T20:25:56.811Z,5.00
2022-10-21T20:28:23.882Z,6.30
2022-10-21T20:30:58.210Z,4.90
2022-10-21T20:33:25.281Z,5.07
2022-10-21T20:35:52.699Z,6.13
2022-10-21T20:38:19.712Z,4.03
2022-10-21T20:40:52.711Z,2.87
2022-10-21T20:43:19.725Z,2.60
2022-10-21T20:45:46.694Z,2.90
2022-10-21T20:48:14.186Z,2.93
2022-10-21T20:50:41.164Z,2.87
2022-10-21T20:53:08.234Z,4.47
2022-10-21T20:55:35.735Z,3.00
2022-10-21T20:58:02.972Z,3.13
2022-10-21T21:00:29.952Z,3.38
2022-10-21T21:05:28.833Z,8.37
2022-10-21T21:07:55.790Z,3.73
2022-10-21T21:10:22.839Z,2.70
2022-10-21T21:12:49.832Z,3.37
2022-10-21T21:15:16.817Z,3.27
2022-10-21T21:17:43.799Z,3.00
2022-10-21T21:20:10.954Z,2.77
2022-10-21T21:22:38.701Z,2.70
2022-10-21T21:25:06.175Z,2.60
2022-10-21T21:27:33.268Z,3.70
2022-10-21T21:30:00.276Z,2.90
2022-10-21T21:32:27.283Z,5.90
2022-10-21T21:34:54.854Z,2.97
2022-10-21T21:37:22.623Z,3.47
2022-10-21T21:39:49.829Z,4.43
2022-10-21T21:42:16.998Z,8.43
2022-10-21T21:44:43.971Z,4.80
2022-10-21T21:47:11.034Z,6.80
2022-10-21T21:49:38.037Z,8.13
2022-10-21T21:52:05.087Z,3.27
2022-10-21T21:54:32.056Z,5.40
2022-10-21T21:57:26.262Z,3.10
2022-10-21T21:59:46.007Z,4.17
2022-10-21T22:02:13.196Z,3.17
2022-10-21T22:04:40.407Z,4.10
2022-10-21T22:07:07.376Z,4.50
2022-10-21T22:09:34.374Z,2.10
2022-10-21T22:12:01.348Z,2.50
2022-10-21T22:14:28.324Z,1.80
2022-10-21T22:16:55.303Z,2.00
2022-10-21T22:19:22.286Z,1.80
2022-10-21T22:21:49.263Z,1.30
2022-10-21T22:24:16.230Z,1.50
2022-10-21T22:26:43.211Z,1.60
2022-10-21T22:29:10.212Z,1.40
2022-10-21T22:31:37.190Z,1.90
2022-10-21T22:34:07.821Z,1.80
2022-10-21T22:36:37.980Z,1.90
2022-10-21T22:39:05.003Z,1.50
2022-10-21T22:41:31.988Z,1.60
2022-10-21T22:43:59.021Z,1.63
2022-10-21T22:46:33.909Z,1.70
2022-10-21T22:49:01.946Z,1.60
2022-10-21T22:51:28.928Z,1.80
2022-10-21T22:53:56.621Z,1.57
2022-10-21T22:56:24.604Z,1.77
2022-10-21T22:58:51.607Z,1.70
2022-10-21T23:01:18.746Z,2.10
2022-10-21T23:03:45.723Z,1.40
2022-10-21T23:06:12.702Z,1.57
2022-10-21T23:08:39.752Z,1.60
2022-10-21T23:11:06.774Z,1.50
2022-10-21T23:13:33.833Z,1.30
2022-10-21T23:16:00.836Z,1.23
2022-10-21T23:18:27.969Z,1.10
2022-10-21T23:20:54.934Z,1.40
2022-10-21T23:23:21.929Z,1.50
2022-10-21T23:25:48.924Z,1.80
2022-10-21T23:30:49.193Z,1.60
2022-10-21T23:33:16.166Z,1.50
2022-10-21T23:35:43.140Z,1.27
2022-10-21T23:38:10.129Z,1.20
2022-10-21T23:40:37.099Z,1.40
2022-10-21T23:43:04.118Z,1.30
2022-10-21T23:45:31.129Z,1.20
2022-10-21T23:47:58.090Z,1.13
2022-10-21T23:50:25.178Z,1.40
2022-10-21T23:52:52.147Z,1.20
2022-10-21T23:55:19.303Z,1.30
2022-10-21T23:57:46.339Z,1.30
